Time;durP1;ratioP1;P1;durP2;ratioP2;P2;SDS_P1;SDS_P2;PMS_P1;PMS_P2;Temp;Humidity;BMP_temperature;BMP_pressure;BME280_temperature;BME280_humidity;BME280_pressure;Samples;Min_cycle;Max_cycle;Signal;HPM_P1;HPM_P2
2022/07/29 00:01:15;;;;;;;1.77;1.23;;;16.60;63.70;;;;;;5073761;28;20286;-78
2022/07/29 00:03:42;;;;;;;3.80;1.65;;;16.60;60.80;;;;;;5073803;28;20635;-77
2022/07/29 00:06:09;;;;;;;2.53;1.30;;;16.60;63.20;;;;;;5074177;28;20620;-79
2022/07/29 00:08:35;;;;;;;3.72;1.35;;;16.60;64.80;;;;;;5093071;28;20326;-78
2022/07/29 00:11:03;;;;;;;2.22;1.40;;;16.60;65.90;;;;;;5093503;28;20205;-79
2022/07/29 00:13:30;;;;;;;2.70;1.25;;;16.60;66.70;;;;;;5074260;28;20284;-78
2022/07/29 00:15:58;;;;;;;2.75;1.60;;;16.60;67.30;;;;;;5075280;28;20205;-80
2022/07/29 00:18:25;;;;;;;3.25;1.33;;;16.50;70.30;;;;;;5075448;28;20276;-79
2022/07/29 00:20:52;;;;;;;4.95;1.50;;;16.50;72.70;;;;;;5073961;28;20193;-79
2022/07/29 00:23:19;;;;;;;9.05;2.35;;;16.50;74.70;;;;;;5073422;28;20354;-78
2022/07/29 00:25:46;;;;;;;2.45;1.30;;;16.50;76.70;;;;;;5074105;28;20229;-78
2022/07/29 00:28:12;;;;;;;1.48;1.33;;;16.40;80.10;;;;;;5073890;28;20609;-77
2022/07/29 00:30:41;;;;;;;4.50;1.40;;;16.40;80.30;;;;;;5073989;28;20201;-79
2022/07/29 00:33:10;;;;;;;5.65;1.63;;;16.50;82.10;;;;;;5073945;28;20205;-79
2022/07/29 00:35:44;;;;;;;6.15;1.58;;;16.40;81.20;;;;;;5074392;28;20200;-78
2022/07/29 00:38:12;;;;;;;1.52;1.42;;;16.50;81.90;;;;;;5073140;28;20483;-77
2022/07/29 00:40:39;;;;;;;4.25;1.52;;;16.50;79.40;;;;;;5075526;28;20201;-80
2022/07/29 00:43:06;;;;;;;2.78;1.33;;;16.40;83.50;;;;;;5073851;28;20605;-79
2022/07/29 00:45:33;;;;;;;2.92;1.50;;;16.50;85.80;;;;;;5073406;28;20228;-79
2022/07/29 00:48:00;;;;;;;4.47;1.40;;;16.40;87.50;;;;;;5073975;28;20201;-78
2022/07/29 00:50:28;;;;;;;2.67;1.40;;;16.40;91.30;;;;;;5074114;28;20201;-79
2022/07/29 00:52:55;;;;;;;2.63;1.33;;;16.40;90.90;;;;;;5072424;28;20240;-77
2022/07/29 00:55:22;;;;;;;6.45;1.60;;;16.40;89.30;;;;;;5073875;28;20206;-76
2022/07/29 00:57:50;;;;;;;2.20;1.40;;;16.40;90.40;;;;;;5075378;28;20266;-79
2022/07/29 01:00:20;;;;;;;3.53;1.48;;;16.40;91.00;;;;;;5075247;28;20190;-79
2022/07/29 01:02:48;;;;;;;4.53;1.58;;;16.40;93.80;;;;;;5074507;28;20198;-80
2022/07/29 01:05:17;;;;;;;5.30;1.70;;;16.40;94.10;;;;;;5073786;28;20275;-79
2022/07/29 01:07:46;;;;;;;3.92;1.40;;;16.40;95.00;;;;;;5078295;28;20211;-80
2022/07/29 01:10:15;;;;;;;3.65;1.38;;;16.30;96.10;;;;;;5078538;28;20239;-80
2022/07/29 01:12:43;;;;;;;1.70;1.42;;;16.30;97.50;;;;;;5074803;28;20201;-79
2022/07/29 01:15:10;;;;;;;1.77;1.23;;;16.40;96.20;;;;;;5085675;28;20469;-81
2022/07/29 01:17:43;;;;;;;4.38;1.48;;;16.30;97.10;;;;;;5093291;28;20214;-82
2022/07/29 01:20:17;;;;;;;2.63;1.60;;;16.30;98.20;;;;;;5093414;28;20191;-79
2022/07/29 01:23:02;;;;;;;2.15;1.27;;;16.30;98.80;;;;;;5081637;28;20204;-80
2022/07/29 01:25:59;;;;;;;3.83;1.60;;;16.30;99.90;;;;;;5073027;28;20268;-80
2022/07/29 01:28:52;;;;;;;2.22;1.15;;;16.30;97.90;;;;;;5063782;28;20211;-81
2022/07/29 01:31:25;;;;;;;4.38;1.30;;;16.20;99.90;;;;;;5073493;28;20213;-80
2022/07/29 01:33:59;;;;;;;2.53;1.50;;;16.20;99.90;;;;;;5072266;28;20189;-80
2022/07/29 01:36:31;;;;;;;1.75;1.20;;;16.10;99.90;;;;;;5072848;28;20221;-79
2022/07/29 01:39:04;;;;;;;3.72;1.30;;;16.10;99.90;;;;;;5072266;28;20307;-78
2022/07/29 01:41:34;;;;;;;2.38;1.42;;;16.10;99.90;;;;;;5071773;28;20598;-79
2022/07/29 01:44:12;;;;;;;2.45;1.30;;;16.10;99.90;;;;;;5072553;28;20224;-78
2022/07/29 01:46:44;;;;;;;3.35;1.27;;;16.10;99.90;;;;;;5072003;28;20221;-79
2022/07/29 01:49:14;;;;;;;4.07;1.70;;;16.10;99.90;;;;;;5071619;28;20205;-81
2022/07/29 01:51:47;;;;;;;2.53;1.50;;;16.00;99.90;;;;;;5072135;28;20612;-79
2022/07/29 01:54:19;;;;;;;3.33;1.90;;;16.00;99.90;;;;;;5072087;28;20280;-80
2022/07/29 01:56:48;;;;;;;2.03;1.45;;;16.00;99.90;;;;;;5071841;28;20203;-79
2022/07/29 01:59:18;;;;;;;3.00;1.75;;;16.00;99.90;;;;;;5071819;28;20205;-79
2022/07/29 02:01:47;;;;;;;3.47;1.55;;;16.00;99.90;;;;;;5071629;28;20213;-80
2022/07/29 02:04:18;;;;;;;3.53;1.40;;;16.00;99.90;;;;;;5072061;28;20205;-80
2022/07/29 02:06:46;;;;;;;4.10;1.45;;;15.90;99.90;;;;;;5071873;28;20221;-79
2022/07/29 02:09:15;;;;;;;3.90;1.70;;;16.00;99.90;;;;;;5071481;28;20225;-79
2022/07/29 02:11:48;;;;;;;4.15;1.60;;;16.00;99.90;;;;;;5071644;28;20783;-81
2022/07/29 02:14:18;;;;;;;1.90;1.30;;;15.90;99.90;;;;;;5072483;28;20197;-79
2022/07/29 02:16:48;;;;;;;1.75;1.23;;;16.00;99.90;;;;;;5071131;28;20566;-80
2022/07/29 02:19:18;;;;;;;2.97;1.45;;;15.90;99.90;;;;;;5072197;28;20197;-79
2022/07/29 02:21:46;;;;;;;1.77;1.45;;;16.00;99.90;;;;;;5071881;28;20445;-79
2022/07/29 02:24:15;;;;;;;3.75;2.00;;;15.90;99.90;;;;;;5070845;28;20206;-78
2022/07/29 02:26:43;;;;;;;4.70;2.20;;;15.90;99.90;;;;;;5073155;28;20218;-78
2022/07/29 02:29:12;;;;;;;4.00;1.40;;;15.90;99.90;;;;;;5072009;28;20296;-79
2022/07/29 02:31:43;;;;;;;3.92;1.60;;;15.90;99.90;;;;;;5073340;28;20197;-80
2022/07/29 02:34:12;;;;;;;3.75;1.70;;;15.90;99.90;;;;;;5073332;28;20590;-80
2022/07/29 02:36:43;;;;;;;2.38;1.35;;;15.80;99.90;;;;;;5074508;28;20216;-79
2022/07/29 02:39:11;;;;;;;3.92;1.98;;;15.80;99.90;;;;;;5072840;28;20225;-81
2022/07/29 02:41:42;;;;;;;2.97;1.70;;;15.80;99.90;;;;;;5073095;28;20215;-86
2022/07/29 02:44:11;;;;;;;3.22;1.33;;;15.80;99.90;;;;;;5073203;28;20212;-83
2022/07/29 02:46:48;;;;;;;4.18;1.70;;;15.90;99.90;;;;;;5087504;22;20231;-82
2022/07/29 02:49:22;;;;;;;2.80;1.50;;;15.90;99.90;;;;;;5092321;28;20204;-80
2022/07/29 02:51:54;;;;;;;2.30;1.60;;;15.80;99.90;;;;;;5092882;28;20193;-83
2022/07/29 02:54:27;;;;;;;5.28;1.73;;;15.80;99.90;;;;;;5092545;28;20196;-81
2022/07/29 02:56:56;;;;;;;2.85;1.45;;;15.90;99.90;;;;;;5073122;28;20196;-84
2022/07/29 02:59:27;;;;;;;1.95;1.67;;;15.90;99.90;;;;;;5072824;28;20288;-81
2022/07/29 03:01:58;;;;;;;2.60;1.80;;;15.90;99.90;;;;;;5072743;28;20186;-80
2022/07/29 03:04:28;;;;;;;2.70;1.85;;;15.90;99.90;;;;;;5072570;28;20186;-82
2022/07/29 03:06:59;;;;;;;3.28;1.58;;;15.90;99.90;;;;;;5072405;28;20209;-82
2022/07/29 03:09:27;;;;;;;3.50;2.13;;;15.80;99.90;;;;;;5073008;28;20193;-82
2022/07/29 03:11:55;;;;;;;1.90;1.70;;;15.80;99.90;;;;;;5073574;28;20616;-82
2022/07/29 03:14:23;;;;;;;2.28;1.98;;;15.80;99.90;;;;;;5072256;28;20217;-83
2022/07/29 03:16:51;;;;;;;2.13;1.92;;;15.80;99.90;;;;;;5075005;28;20201;-83
2022/07/29 03:19:21;;;;;;;3.35;1.80;;;15.80;99.90;;;;;;5076891;28;20262;-82
2022/07/29 03:21:48;;;;;;;3.65;2.08;;;15.90;99.90;;;;;;5076504;28;20551;-78
2022/07/29 03:24:29;;;;;;;2.70;1.80;;;15.90;99.90;;;;;;5076001;28;20197;-83
2022/07/29 03:26:56;;;;;;;5.15;1.90;;;15.80;99.90;;;;;;5076225;28;20509;-82
2022/07/29 03:29:23;;;;;;;3.25;1.75;;;15.80;99.90;;;;;;5079116;28;20205;-79
2022/07/29 03:31:50;;;;;;;3.17;2.00;;;15.90;99.90;;;;;;5080837;28;20204;-77
2022/07/29 03:34:19;;;;;;;4.18;2.50;;;15.80;99.90;;;;;;5080550;28;20209;-81
2022/07/29 03:36:45;;;;;;;2.10;1.80;;;15.80;99.90;;;;;;5080050;28;20219;-78
2022/07/29 03:39:16;;;;;;;3.45;1.90;;;15.80;99.90;;;;;;5081994;28;20296;-78
2022/07/29 03:41:45;;;;;;;3.17;1.98;;;15.80;99.90;;;;;;5078607;28;20239;-80
2022/07/29 03:44:12;;;;;;;5.68;2.33;;;15.80;99.90;;;;;;5077315;28;20309;-78
2022/07/29 03:46:40;;;;;;;3.05;1.85;;;15.80;99.90;;;;;;5075370;28;20233;-79
2022/07/29 03:49:09;;;;;;;3.35;1.88;;;15.70;99.90;;;;;;5074474;28;20205;-82
2022/07/29 03:51:37;;;;;;;3.45;1.90;;;15.70;99.90;;;;;;5075838;28;20270;-78
2022/07/29 03:54:05;;;;;;;4.40;1.98;;;15.70;99.90;;;;;;5075107;28;20300;-79
2022/07/29 03:56:36;;;;;;;3.60;2.00;;;15.70;99.90;;;;;;5074895;28;20280;-80
2022/07/29 03:59:03;;;;;;;2.10;1.90;;;15.70;99.90;;;;;;5074810;28;20284;-82
2022/07/29 04:01:33;;;;;;;4.50;2.08;;;15.70;99.90;;;;;;5073951;28;20201;-78
2022/07/29 04:04:01;;;;;;;2.47;1.65;;;15.70;99.90;;;;;;5074722;28;20189;-79
2022/07/29 04:06:28;;;;;;;2.60;2.05;;;15.70;99.90;;;;;;5074569;28;20225;-79
2022/07/29 04:08:56;;;;;;;1.75;1.60;;;15.70;99.90;;;;;;5073610;28;20656;-78
2022/07/29 04:11:24;;;;;;;3.15;1.60;;;15.60;99.90;;;;;;5074437;28;20236;-79
2022/07/29 04:13:50;;;;;;;2.60;1.95;;;15.60;99.90;;;;;;5074566;28;20280;-81
2022/07/29 04:16:17;;;;;;;2.58;1.70;;;15.70;99.90;;;;;;5074028;28;20232;-80
2022/07/29 04:18:44;;;;;;;3.40;2.10;;;15.60;99.90;;;;;;5074678;28;20204;-79
2022/07/29 04:21:11;;;;;;;4.45;1.88;;;15.60;99.90;;;;;;5074511;28;20201;-79
2022/07/29 04:23:38;;;;;;;3.13;2.17;;;15.60;99.90;;;;;;5073693;28;20472;-81
2022/07/29 04:26:09;;;;;;;2.50;1.80;;;15.60;99.90;;;;;;5073766;28;20575;-79
2022/07/29 04:28:36;;;;;;;2.97;2.03;;;15.60;99.90;;;;;;5073194;28;20204;-78
2022/07/29 04:31:03;;;;;;;3.28;2.22;;;15.60;99.90;;;;;;5072967;28;20205;-79
2022/07/29 04:33:30;;;;;;;2.45;1.65;;;15.60;99.90;;;;;;5073622;28;20278;-79
2022/07/29 04:35:56;;;;;;;4.35;2.10;;;15.70;99.90;;;;;;5073850;28;20198;-81
2022/07/29 04:38:23;;;;;;;2.90;2.00;;;15.70;99.90;;;;;;5073514;28;20228;-80
2022/07/29 04:40:50;;;;;;;3.65;2.00;;;15.70;99.90;;;;;;5073799;28;20201;-80
2022/07/29 04:43:19;;;;;;;2.22;1.77;;;15.70;99.90;;;;;;5073376;28;20284;-79
2022/07/29 04:45:45;;;;;;;4.75;2.13;;;15.70;99.90;;;;;;5072974;28;20201;-79
2022/07/29 04:48:12;;;;;;;2.08;1.52;;;15.70;99.90;;;;;;5073389;28;20512;-80
2022/07/29 04:50:40;;;;;;;1.90;1.80;;;15.70;99.90;;;;;;5072908;28;20854;-78
2022/07/29 04:53:07;;;;;;;3.90;2.38;;;15.80;99.90;;;;;;5073823;28;20259;-78
2022/07/29 04:55:34;;;;;;;2.92;1.90;;;15.80;99.90;;;;;;5073642;28;20202;-79
2022/07/29 04:58:01;;;;;;;3.08;1.80;;;15.80;99.90;;;;;;5072349;28;20198;-79
2022/07/29 05:00:29;;;;;;;5.18;2.08;;;15.80;99.90;;;;;;5073269;28;20200;-79
2022/07/29 05:02:56;;;;;;;2.67;1.90;;;15.80;99.90;;;;;;5072943;28;20193;-78
2022/07/29 05:05:23;;;;;;;2.28;1.83;;;15.90;99.90;;;;;;5072193;28;20206;-79
2022/07/29 05:07:50;;;;;;;3.10;1.80;;;15.90;99.90;;;;;;5073057;28;20220;-79
2022/07/29 05:10:17;;;;;;;2.92;1.80;;;15.90;99.90;;;;;;5072780;28;20205;-78
2022/07/29 05:12:44;;;;;;;2.75;1.90;;;16.00;99.90;;;;;;5072495;28;20276;-80
2022/07/29 05:15:11;;;;;;;4.53;2.20;;;16.00;99.90;;;;;;5072494;28;20211;-80
2022/07/29 05:17:42;;;;;;;3.05;1.75;;;16.10;99.90;;;;;;5073845;28;20597;-82
2022/07/29 05:20:10;;;;;;;5.90;2.17;;;16.10;99.90;;;;;;5073071;28;20203;-80
2022/07/29 05:22:37;;;;;;;2.88;1.77;;;16.10;99.90;;;;;;5072697;28;20465;-78
2022/07/29 05:25:04;;;;;;;2.00;1.60;;;16.10;99.90;;;;;;5073334;28;20201;-80
2022/07/29 05:27:31;;;;;;;3.30;1.70;;;16.10;99.90;;;;;;5072920;28;20213;-79
2022/07/29 05:29:58;;;;;;;4.53;1.90;;;16.20;99.90;;;;;;5072742;28;20209;-80
2022/07/29 05:32:25;;;;;;;2.97;1.80;;;16.20;99.90;;;;;;5072938;28;20280;-79
2022/07/29 05:34:53;;;;;;;4.85;1.98;;;16.30;99.90;;;;;;5071940;28;20208;-83
2022/07/29 05:37:20;;;;;;;2.60;2.00;;;16.40;99.90;;;;;;5073120;28;20291;-81
2022/07/29 05:39:47;;;;;;;6.18;1.83;;;16.40;99.90;;;;;;5072290;28;20652;-78
2022/07/29 05:42:14;;;;;;;5.85;2.50;;;16.50;99.90;;;;;;5071926;28;20208;-78
2022/07/29 05:44:41;;;;;;;3.85;2.22;;;16.50;99.90;;;;;;5072891;28;20199;-81
2022/07/29 05:47:08;;;;;;;2.25;1.63;;;16.50;99.90;;;;;;5072445;28;20233;-81
2022/07/29 05:49:35;;;;;;;2.45;1.70;;;16.50;99.90;;;;;;5073056;28;20544;-79
2022/07/29 05:52:03;;;;;;;3.60;2.00;;;16.60;99.90;;;;;;5072124;28;20204;-80
2022/07/29 05:54:30;;;;;;;2.65;1.73;;;16.50;99.90;;;;;;5074808;28;20213;-81
2022/07/29 05:56:57;;;;;;;4.05;1.88;;;16.60;99.90;;;;;;5079321;28;20213;-78
2022/07/29 05:59:24;;;;;;;2.45;1.85;;;16.60;99.90;;;;;;5083047;28;20852;-79
2022/07/29 06:01:51;;;;;;;4.65;2.03;;;16.60;99.90;;;;;;5079584;28;20326;-82
2022/07/29 06:04:18;;;;;;;3.45;2.05;;;16.60;99.90;;;;;;5077054;28;20481;-81
2022/07/29 06:06:45;;;;;;;2.88;2.17;;;16.50;99.90;;;;;;5081163;28;20217;-83
2022/07/29 06:09:14;;;;;;;3.10;1.77;;;16.50;99.90;;;;;;5083950;28;20254;-79
2022/07/29 06:11:42;;;;;;;4.68;2.55;;;16.60;99.90;;;;;;5091568;28;20203;-81
2022/07/29 06:14:09;;;;;;;2.85;1.80;;;16.60;99.90;;;;;;5072243;28;20667;-80
2022/07/29 06:16:36;;;;;;;3.45;1.90;;;16.70;99.90;;;;;;5073318;28;20585;-82
2022/07/29 06:19:04;;;;;;;6.72;2.25;;;16.80;99.90;;;;;;5092086;28;20192;-78
2022/07/29 06:21:31;;;;;;;3.85;1.92;;;17.10;99.90;;;;;;5089082;28;20641;-80
2022/07/29 06:23:57;;;;;;;4.70;2.13;;;17.40;92.00;;;;;;5084388;28;20188;-81
2022/07/29 06:26:26;;;;;;;3.67;1.70;;;17.70;90.80;;;;;;5091867;28;20195;-80
2022/07/29 06:28:52;;;;;;;4.50;2.00;;;18.00;51.40;;;;;;5082197;28;20205;-79
2022/07/29 06:31:19;;;;;;;2.63;1.50;;;18.20;29.00;;;;;;5081966;28;20229;-78
2022/07/29 06:33:46;;;;;;;3.80;1.50;;;18.40;25.90;;;;;;5091919;28;20188;-78
2022/07/29 06:36:13;;;;;;;3.75;1.80;;;18.50;16.20;;;;;;5084920;28;20366;-78
2022/07/29 06:38:40;;;;;;;4.63;1.67;;;18.60;5.80;;;;;;5091308;28;20255;-82
2022/07/29 06:41:12;;;;;;;3.08;1.67;;;18.70;1.60;;;;;;5090143;28;22270;-80
2022/07/29 06:43:42;;;;;;;5.40;2.22;;;18.70;1.00;;;;;;5091105;28;20200;-78
2022/07/29 06:46:10;;;;;;;2.47;1.90;;;18.80;1.00;;;;;;5081610;28;20240;-80
2022/07/29 06:48:37;;;;;;;4.90;1.65;;;18.80;1.00;;;;;;5071106;28;20221;-82
2022/07/29 06:51:05;;;;;;;5.13;2.10;;;18.90;1.00;;;;;;5072086;28;20236;-78
2022/07/29 06:53:33;;;;;;;3.90;1.80;;;18.80;1.00;;;;;;5075480;28;20211;-79
2022/07/29 06:56:00;;;;;;;7.18;1.58;;;18.70;1.00;;;;;;5075791;28;20231;-81
2022/07/29 06:58:28;;;;;;;5.65;1.75;;;18.60;1.00;;;;;;5075185;28;20200;-79
2022/07/29 07:00:57;;;;;;;4.75;2.15;;;18.50;1.00;;;;;;5075861;28;20212;-80
2022/07/29 07:03:26;;;;;;;3.08;1.52;;;18.40;1.00;;;;;;5075781;28;20815;-76
2022/07/29 07:05:53;;;;;;;5.28;2.20;;;18.40;1.00;;;;;;5075376;28;20205;-79
2022/07/29 07:08:21;;;;;;;2.63;1.55;;;18.50;1.00;;;;;;5075506;28;20225;-77
2022/07/29 07:10:49;;;;;;;5.85;1.60;;;18.50;1.00;;;;;;5075374;28;20197;-79
2022/07/29 07:13:17;;;;;;;4.55;2.00;;;18.80;1.00;;;;;;5074405;28;20288;-77
2022/07/29 07:15:44;;;;;;;1.65;1.52;;;19.10;1.00;;;;;;5075401;28;20609;-79
2022/07/29 07:18:13;;;;;;;2.92;1.88;;;19.60;1.00;;;;;;5074630;28;20589;-77
2022/07/29 07:20:40;;;;;;;2.97;1.75;;;20.00;1.00;;;;;;5075136;28;20272;-78
2022/07/29 07:23:07;;;;;;;3.92;1.70;;;20.50;1.00;;;;;;5075327;28;20514;-79
2022/07/29 07:25:34;;;;;;;3.85;1.90;;;21.00;1.00;;;;;;5074319;28;20310;-80
2022/07/29 07:28:01;;;;;;;3.70;1.70;;;21.30;1.00;;;;;;5074904;28;20315;-79
2022/07/29 07:30:28;;;;;;;3.03;1.58;;;21.60;1.00;;;;;;5075120;28;20194;-78
2022/07/29 07:32:56;;;;;;;1.40;1.20;;;21.90;1.00;;;;;;5074388;28;20198;-78
2022/07/29 07:35:24;;;;;;;3.33;1.52;;;21.90;1.00;;;;;;5074661;28;20284;-79
2022/07/29 07:37:51;;;;;;;3.00;1.48;;;21.90;1.00;;;;;;5074663;28;20611;-80
2022/07/29 07:40:17;;;;;;;3.92;1.50;;;22.00;1.00;;;;;;5074145;28;20223;-81
2022/07/29 07:42:44;;;;;;;6.13;1.55;;;22.00;1.00;;;;;;5075353;28;20224;-77
2022/07/29 07:45:12;;;;;;;1.83;1.40;;;22.30;99.90;;;;;;5074405;28;20212;-79
2022/07/29 07:47:39;;;;;;;2.92;1.52;;;22.30;99.90;;;;;;5073997;28;20224;-77
2022/07/29 07:50:09;;;;;;;3.38;1.40;;;22.40;99.90;;;;;;5074767;28;20212;-77
2022/07/29 07:52:47;;;;;;;3.63;1.52;;;22.40;99.90;;;;;;5073478;28;20673;-77
2022/07/29 07:55:14;;;;;;;3.47;1.48;;;22.50;56.80;;;;;;5072939;28;20197;-78
2022/07/29 07:57:41;;;;;;;4.32;2.00;;;22.30;99.90;;;;;;5074477;28;20232;-78
2022/07/29 08:00:08;;;;;;;3.47;1.33;;;22.10;99.90;;;;;;5080105;28;20285;-78
2022/07/29 08:02:35;;;;;;;3.80;1.75;;;22.00;99.90;;;;;;5087834;28;20201;-77
2022/07/29 08:05:02;;;;;;;4.20;1.67;;;21.60;1.00;;;;;;5094833;28;20208;-77
2022/07/29 08:07:29;;;;;;;2.45;1.23;;;21.30;1.00;;;;;;5094151;28;20217;-78
2022/07/29 08:09:57;;;;;;;4.53;1.48;;;21.30;1.00;;;;;;5091427;28;20576;-78
2022/07/29 08:12:24;;;;;;;3.13;1.88;;;21.50;1.00;;;;;;5076004;28;20212;-81
2022/07/29 08:14:51;;;;;;;3.10;1.48;;;21.70;1.00;;;;;;5070049;28;20211;-77
2022/07/29 08:17:18;;;;;;;2.00;1.50;;;21.60;1.00;;;;;;5078931;28;20702;-78
2022/07/29 08:19:45;;;;;;;3.45;1.52;;;21.80;1.00;;;;;;5072743;28;20209;-77
2022/07/29 08:22:12;;;;;;;4.07;1.63;;;22.10;1.00;;;;;;5080459;28;20207;-78
2022/07/29 08:24:52;;;;;;;4.85;1.90;;;22.10;99.90;;;;;;5074272;28;20201;-77
2022/07/29 08:27:20;;;;;;;3.70;1.42;;;22.20;99.90;;;;;;5075081;28;20193;-77
2022/07/29 08:29:47;;;;;;;4.93;1.83;;;22.20;1.00;;;;;;5076989;28;20196;-78
2022/07/29 08:32:14;;;;;;;8.07;2.08;;;22.10;99.90;;;;;;5082789;28;20208;-80
2022/07/29 08:34:42;;;;;;;2.58;1.55;;;22.00;99.90;;;;;;5075306;28;20200;-79
2022/07/29 08:37:11;;;;;;;3.38;1.73;;;22.10;99.90;;;;;;5090893;28;20216;-85
2022/07/29 08:39:38;;;;;;;4.32;1.73;;;22.10;99.90;;;;;;5079748;28;20768;-80
2022/07/29 08:42:06;;;;;;;1.50;1.30;;;22.30;99.90;;;;;;5083897;28;20202;-82
2022/07/29 08:44:35;;;;;;;2.65;1.60;;;22.30;99.90;;;;;;5080324;28;20201;-80
2022/07/29 08:47:02;;;;;;;3.85;2.10;;;22.30;99.90;;;;;;5073598;28;20237;-81
2022/07/29 08:49:29;;;;;;;3.00;1.90;;;22.20;99.90;;;;;;5073319;28;20597;-80
2022/07/29 08:51:57;;;;;;;3.15;1.80;;;22.30;99.90;;;;;;5084859;28;20279;-80
2022/07/29 08:54:25;;;;;;;2.97;1.60;;;22.40;99.90;;;;;;5091955;28;20209;-81
2022/07/29 08:56:52;;;;;;;4.03;1.80;;;22.50;99.90;;;;;;5092332;28;20533;-79
2022/07/29 08:59:22;;;;;;;3.95;2.03;;;22.70;60.50;;;;;;5078212;28;20208;-79
2022/07/29 09:01:53;;;;;;;3.33;1.35;;;22.50;99.90;;;;;;5078122;28;20192;-79
2022/07/29 09:04:20;;;;;;;4.35;2.10;;;22.70;99.90;;;;;;5090138;28;20201;-80
2022/07/29 09:06:50;;;;;;;3.50;1.55;;;22.70;99.90;;;;;;5094607;28;20292;-82
2022/07/29 09:09:17;;;;;;;4.63;1.95;;;22.60;99.90;;;;;;5074975;28;20585;-82
2022/07/29 09:11:44;;;;;;;5.68;1.60;;;22.80;99.90;;;;;;5072622;28;20283;-84
2022/07/29 09:14:13;;;;;;;2.55;1.50;;;23.10;99.90;;;;;;5073505;28;20288;-83
2022/07/29 09:16:52;;;;;;;3.90;2.33;;;23.20;1.00;;;;;;5073449;28;20350;-83
2022/07/29 09:19:25;;;;;;;4.10;2.00;;;23.10;1.00;;;;;;5072212;28;20231;-79
2022/07/29 09:21:58;;;;;;;2.97;1.45;;;22.90;1.00;;;;;;5073008;28;20204;-80
2022/07/29 09:24:26;;;;;;;3.92;1.90;;;23.00;1.00;;;;;;5072140;28;20489;-77
2022/07/29 09:26:53;;;;;;;2.22;1.65;;;23.10;1.00;;;;;;5086484;28;20224;-80
2022/07/29 09:29:22;;;;;;;4.90;2.05;;;23.30;1.00;;;;;;5092727;28;20527;-81
2022/07/29 09:31:52;;;;;;;7.97;2.28;;;23.30;31.80;;;;;;5092865;28;20192;-79
2022/07/29 09:34:23;;;;;;;4.32;2.00;;;23.30;1.00;;;;;;5073702;28;20293;-80
2022/07/29 09:36:51;;;;;;;2.90;2.00;;;23.40;1.00;;;;;;5072781;28;20193;-79
2022/07/29 09:39:29;;;;;;;3.80;1.73;;;23.30;39.30;;;;;;5071803;28;20213;-80
2022/07/29 09:41:58;;;;;;;5.63;1.77;;;23.30;78.30;;;;;;5104631;22;20239;-77
2022/07/29 09:44:25;;;;;;;6.80;2.42;;;23.20;1.00;;;;;;5112261;28;20271;-80
2022/07/29 09:47:05;;;;;;;4.97;2.03;;;23.40;1.00;;;;;;5105020;28;20214;-79
2022/07/29 09:49:33;;;;;;;4.40;1.90;;;23.50;1.00;;;;;;5110334;28;20650;-77
2022/07/29 09:52:08;;;;;;;4.18;1.50;;;23.90;99.90;;;;;;5097390;28;20208;-80
2022/07/29 09:54:37;;;;;;;3.72;2.05;;;24.20;1.00;;;;;;5100503;28;20275;-79
2022/07/29 09:57:05;;;;;;;3.63;1.92;;;24.40;1.00;;;;;;5103118;28;20222;-77
2022/07/29 09:59:32;;;;;;;5.80;1.73;;;24.90;1.00;;;;;;5112535;28;20207;-78
2022/07/29 10:02:01;;;;;;;4.03;1.95;;;25.40;35.20;;;;;;5106664;28;20235;-79
2022/07/29 10:04:39;;;;;;;3.58;1.95;;;25.70;1.00;;;;;;5100542;28;20286;-79
2022/07/29 10:07:06;;;;;;;5.57;2.22;;;25.80;1.00;;;;;;5093772;28;20488;-80
2022/07/29 10:09:34;;;;;;;3.70;1.75;;;25.50;1.00;;;;;;5092059;28;20232;-80
2022/07/29 10:12:10;;;;;;;3.15;1.88;;;25.50;1.00;;;;;;5091036;28;20581;-78
2022/07/29 10:14:38;;;;;;;6.65;2.58;;;25.50;1.00;;;;;;5091840;28;20200;-82
2022/07/29 10:17:09;;;;;;;3.05;1.85;;;25.50;1.00;;;;;;5092436;28;20209;-83
2022/07/29 10:19:37;;;;;;;4.05;2.10;;;25.70;1.00;;;;;;5092876;28;20197;-84
2022/07/29 10:22:06;;;;;;;4.95;1.85;;;25.70;99.90;;;;;;5092612;28;20206;-78
2022/07/29 10:24:34;;;;;;;3.53;2.15;;;25.70;1.00;;;;;;5092205;28;20213;-80
2022/07/29 10:27:02;;;;;;;2.80;1.65;;;25.60;99.90;;;;;;5093344;28;20196;-80
2022/07/29 10:32:23;;;;;;;2.55;2.03;;;25.80;99.90;;;;;;5245629;22;20243;-81
2022/07/29 10:35:09;;;;;;;4.55;1.52;;;25.40;99.90;;;;;;5086130;28;20238;-82
2022/07/29 10:37:53;;;;;;;2.53;1.60;;;25.50;99.90;;;;;;5072205;28;20201;-82
2022/07/29 10:43:21;;;;;;;4.55;1.95;;;25.40;99.90;;;;;;5046821;28;20624;-81
2022/07/29 10:45:50;;;;;;;4.35;2.03;;;25.10;99.90;;;;;;5052854;28;20656;-81
2022/07/29 10:48:19;;;;;;;3.47;1.50;;;25.20;1.00;;;;;;5051795;28;20287;-82
2022/07/29 10:50:56;;;;;;;4.82;1.70;;;25.30;99.90;;;;;;5051055;28;20209;-80
2022/07/29 10:53:24;;;;;;;3.63;1.83;;;25.30;1.00;;;;;;5051649;28;20201;-80
2022/07/29 10:55:53;;;;;;;3.65;1.95;;;25.40;1.00;;;;;;5052355;28;20213;-84
2022/07/29 10:58:22;;;;;;;5.10;2.10;;;25.60;1.00;;;;;;5057841;28;20201;-77
2022/07/29 11:00:51;;;;;;;3.75;1.75;;;25.60;1.00;;;;;;5071630;28;20643;-80
2022/07/29 11:03:47;;;;;;;4.82;2.15;;;25.70;1.00;;;;;;5070543;28;20207;-83
2022/07/29 11:06:15;;;;;;;3.63;1.70;;;26.20;99.90;;;;;;5020734;28;20209;-81
2022/07/29 11:08:42;;;;;;;2.80;1.85;;;26.60;99.90;;;;;;5051461;28;20213;-82
2022/07/29 11:11:40;;;;;;;3.30;1.98;;;26.70;1.00;;;;;;5049618;28;20202;-80
2022/07/29 11:14:07;;;;;;;3.35;1.77;;;26.90;1.00;;;;;;5051575;28;20198;-82
2022/07/29 11:17:00;;;;;;;2.20;1.58;;;26.70;1.00;;;;;;5050705;28;20198;-82
2022/07/29 11:19:28;;;;;;;3.63;2.38;;;26.70;1.00;;;;;;5049935;28;20194;-81
2022/07/29 11:21:55;;;;;;;5.80;2.30;;;26.80;1.00;;;;;;5050567;28;20618;-81
2022/07/29 11:24:27;;;;;;;3.38;1.80;;;26.80;1.00;;;;;;5050639;28;20210;-83
2022/07/29 11:27:14;;;;;;;5.25;2.20;;;27.00;1.00;;;;;;5051692;28;20190;-83
2022/07/29 11:29:51;;;;;;;3.25;1.90;;;27.20;1.00;;;;;;5051343;28;20296;-81
2022/07/29 11:32:19;;;;;;;4.70;2.30;;;27.60;1.00;;;;;;5050461;28;20324;-82
2022/07/29 11:34:48;;;;;;;4.85;2.08;;;27.80;1.00;;;;;;5052009;28;20546;-82
2022/07/29 11:37:21;;;;;;;5.95;2.42;;;27.90;99.90;;;;;;5052309;28;20209;-84
2022/07/29 11:40:07;;;;;;;4.63;1.75;;;28.00;98.50;;;;;;5054223;28;20218;-83
2022/07/29 11:42:42;;;;;;;3.33;1.55;;;28.10;99.90;;;;;;5055196;28;20665;-81
2022/07/29 11:45:12;;;;;;;4.20;2.08;;;28.00;99.90;;;;;;5054867;28;20233;-79
2022/07/29 11:47:40;;;;;;;3.55;2.00;;;28.20;99.90;;;;;;5054179;28;20201;-82
2022/07/29 11:50:12;;;;;;;6.80;2.20;;;28.40;1.00;;;;;;5055035;28;20271;-82
2022/07/29 11:52:45;;;;;;;4.13;1.90;;;28.30;1.00;;;;;;5054251;28;20194;-83
2022/07/29 11:55:14;;;;;;;5.30;1.90;;;28.30;1.00;;;;;;5055008;28;20517;-82
2022/07/29 11:57:48;;;;;;;3.65;1.83;;;28.30;1.00;;;;;;5055287;28;20621;-81
2022/07/29 12:00:23;;;;;;;4.60;2.10;;;28.40;1.00;;;;;;5054179;28;20187;-82
2022/07/29 12:02:50;;;;;;;4.25;2.08;;;28.20;1.00;;;;;;5054755;28;20216;-81
2022/07/29 12:05:19;;;;;;;4.20;2.13;;;28.00;1.00;;;;;;5054748;28;20600;-80
2022/07/29 12:07:46;;;;;;;9.40;2.17;;;27.80;1.00;;;;;;5053783;28;20295;-80
2022/07/29 12:10:13;;;;;;;5.15;2.10;;;27.80;1.00;;;;;;5071962;28;20229;-82
2022/07/29 12:12:40;;;;;;;3.90;1.65;;;27.90;1.00;;;;;;5074331;28;20280;-81
2022/07/29 12:15:16;;;;;;;4.10;2.10;;;28.10;1.00;;;;;;5082232;22;20208;-83
2022/07/29 12:17:43;;;;;;;2.78;1.90;;;28.30;1.00;;;;;;5060224;28;20213;-83
2022/07/29 12:20:12;;;;;;;6.50;2.10;;;28.40;1.00;;;;;;5054140;28;20194;-82
2022/07/29 12:22:44;;;;;;;2.70;2.05;;;28.70;1.00;;;;;;5053964;28;20280;-82
2022/07/29 12:25:14;;;;;;;7.20;1.98;;;28.90;1.00;;;;;;5054100;28;20774;-80
2022/07/29 12:27:42;;;;;;;3.20;1.60;;;29.10;99.90;;;;;;5053419;28;20305;-83
2022/07/29 12:30:11;;;;;;;4.15;2.10;;;29.10;99.90;;;;;;5053883;28;20308;-80
2022/07/29 12:32:39;;;;;;;3.33;2.05;;;29.10;99.90;;;;;;5054082;28;20480;-83
2022/07/29 12:35:08;;;;;;;2.88;1.40;;;29.10;99.90;;;;;;5053203;28;20201;-82
2022/07/29 12:37:36;;;;;;;3.00;1.73;;;29.10;99.90;;;;;;5054256;28;20198;-80
2022/07/29 12:40:07;;;;;;;4.32;1.52;;;29.10;99.90;;;;;;5053564;28;20309;-82
2022/07/29 12:42:35;;;;;;;7.45;2.05;;;29.00;99.90;;;;;;5053564;28;20189;-81
2022/07/29 12:45:03;;;;;;;4.53;2.05;;;28.80;99.90;;;;;;5054079;28;20197;-81
2022/07/29 12:47:30;;;;;;;5.38;1.70;;;28.60;99.90;;;;;;5053776;28;20198;-83
2022/07/29 12:50:14;;;;;;;3.72;2.30;;;28.40;99.90;;;;;;5067689;28;20267;-81
2022/07/29 12:52:41;;;;;;;6.13;1.73;;;28.00;99.90;;;;;;5074113;28;20193;-81
2022/07/29 12:55:09;;;;;;;3.88;1.60;;;27.70;99.90;;;;;;5073987;28;20193;-81
2022/07/29 12:57:47;;;;;;;4.32;2.05;;;28.00;99.90;;;;;;5063146;28;20210;-82
2022/07/29 13:00:16;;;;;;;1.88;1.48;;;28.00;99.90;;;;;;5053486;28;20536;-82
2022/07/29 13:02:44;;;;;;;3.80;1.80;;;27.90;99.90;;;;;;5053799;28;20198;-81
2022/07/29 13:05:12;;;;;;;3.75;1.60;;;27.90;99.90;;;;;;5053107;28;20237;-84
2022/07/29 13:07:39;;;;;;;4.07;1.67;;;28.20;99.90;;;;;;5054513;28;20206;-83